This is the latest recevied weather packets stored in our database for station/object JH0FOG-13. If no packets are shown the sender has not sent any weather packets the latest 10 day(s).
| Time | Temp. | Humidity | Pressure | Rain* | Wind** | Luminosity | Snow |
|---|---|---|---|---|---|---|---|
| 1778014801 | 10° C | 80% | 1020.4 hPa | 0 mm | - | - | - |
| 1778013601 | 8.89° C | 87% | 1020.4 hPa | 0 mm | - | - | - |
| 1778012401 | 7.22° C | 88% | 1020.7 hPa | 0 mm | - | - | - |
| 1778011201 | 6.67° C | 88% | 1020.5 hPa | 0 mm | - | - | - |
| 1778010002 | 6.67° C | 88% | 1020.5 hPa | 0 mm | - | - | - |
| 1778008802 | 6.67° C | 88% | 1020.4 hPa | 0 mm | - | - | - |
| 1778007602 | 6.67° C | 87% | 1020.2 hPa | 0 mm | - | - | - |
| 1778006402 | 7.22° C | 86% | 1020.1 hPa | 0 mm | - | - | - |
| 1778005201 | 7.22° C | 86% | 1020.1 hPa | 0 mm | - | - | - |
| 1778004002 | 7.78° C | 85% | 1020.1 hPa | 0 mm | - | - | - |
| 1778002801 | 8.33° C | 82% | 1020.2 hPa | 0 mm | - | - | - |
| 1778001601 | 7.78° C | 83% | 1020.2 hPa | 0 mm | - | - | - |
| 1778000401 | 8.33° C | 83% | 1020.2 hPa | 0 mm | - | - | - |
| 1777999201 | 7.78° C | 84% | 1020.2 hPa | 0 mm | - | - | - |
| 1777998001 | 7.78° C | 85% | 1020 hPa | 0 mm | - | - | - |
| 1777996801 | 7.78° C | 84% | 1020 hPa | 0 mm | - | - | - |
| 1777995601 | 7.78° C | 84% | 1020.1 hPa | 0 mm | - | - | - |
| 1777994401 | 7.78° C | 85% | 1019.9 hPa | 0 mm | - | - | - |
| 1777993202 | 7.78° C | 85% | 1020.1 hPa | 0 mm | - | - | - |
| 1777992001 | 8.33° C | 85% | 1020.1 hPa | 0 mm | - | - | - |
| 1777990801 | 8.33° C | 83% | 1020.3 hPa | 0 mm | - | - | - |
| 1777989601 | 8.89° C | 81% | 1020.2 hPa | 0 mm | - | - | - |
| 1777988401 | 9.44° C | 80% | 1020.4 hPa | 0 mm | - | - | - |
| 1777987201 | 9.44° C | 81% | 1020.3 hPa | 0 mm | - | - | - |
| 1777986001 | 10° C | 79% | 1020.1 hPa | 0 mm | - | - | - |
* Rain latest hour (hover to see other rain measurements)
** Current wind speed in m/s (hover to see current wind gust speed)